Main page
METAR-TAF:

METAR-TAF

Airports :

Oslo Airport. Gardermoen

Oslo, Norway

latitude: 60-12N, longitude: 011-05E, elevation: 208 m

Current weather observation

The report was made 39 minutes ago, at 20:50 UTC
Wind 19 kt from the South
Temperature 11°C
Humidity 87%
Pressure 1005 hPa
Visibility 10 km or more
Overcast at a height of 1200 ft

METAR: ENGM 282050Z 17019KT 9999 OVC012 11/09 Q1005 NOSIG

Time: 23:29 (21:29 UTC)

Forecast

Forecast valid from 28 at 18 UTC to 29 at 18 UTC
Wind 12 kt from the South
Visibility 10 km or more
Overcast at a height of 800 ft
Temporary
from 28 at 18 UTC to 29 at 14 UTC
Scattered clouds at a height of 1000 ft
Broken clouds at a height of 1500 ft
Temporary
from 29 at 16 UTC to 29 at 18 UTC
Visibility: 4000 m
Broken clouds at a height of 400 ft
light drizzle, mist

TAF: ENGM 2818/2918 18012KT 9999 OVC008 TEMPO 2818/2914 SCT010 BKN015 TEMPO 2916/2918 4000 -DZ BR BKN004

Weather observations and forecasts of more than 4000 airports (METAR and TAF reports).

The available stations are represented by yellow and red dots on the map.

Hover mouse over dot to see the name of the station.

Then click to see weather observations and forecasts.

To change the map : click on the green buttons with a black cross to zoom in, on the green button with a dash to zoom out, or on the green arrows for adjacent maps.


METAR-TAF: